sensor_id;sensor_type;location;lat;lon;timestamp;P1;durP1;ratioP1;P2;durP2;ratioP2
51810;SDS011;52468;40.116;18.296;2023-03-02T00:01:31;14.30;;;5.73;;
51810;SDS011;52468;40.116;18.296;2023-03-02T00:06:50;23.40;;;5.33;;
51810;SDS011;52468;40.116;18.296;2023-03-02T00:09:19;11.87;;;3.53;;
51810;SDS011;52468;40.116;18.296;2023-03-02T00:11:47;11.17;;;4.03;;
51810;SDS011;52468;40.116;18.296;2023-03-02T00:14:15;9.13;;;3.90;;
51810;SDS011;52468;40.116;18.296;2023-03-02T00:16:43;13.80;;;4.60;;
51810;SDS011;52468;40.116;18.296;2023-03-02T00:19:11;16.57;;;3.93;;
51810;SDS011;52468;40.116;18.296;2023-03-02T00:21:38;18.00;;;4.40;;
51810;SDS011;52468;40.116;18.296;2023-03-02T00:24:07;14.53;;;4.47;;
51810;SDS011;52468;40.116;18.296;2023-03-02T00:26:35;11.00;;;3.53;;
51810;SDS011;52468;40.116;18.296;2023-03-02T00:29:03;12.87;;;4.30;;
51810;SDS011;52468;40.116;18.296;2023-03-02T00:31:32;9.07;;;4.33;;
51810;SDS011;52468;40.116;18.296;2023-03-02T00:34:00;11.40;;;3.13;;
51810;SDS011;52468;40.116;18.296;2023-03-02T00:36:27;11.60;;;4.37;;
51810;SDS011;52468;40.116;18.296;2023-03-02T00:38:55;14.33;;;5.27;;
51810;SDS011;52468;40.116;18.296;2023-03-02T00:41:24;7.73;;;3.93;;
51810;SDS011;52468;40.116;18.296;2023-03-02T00:43:52;16.57;;;3.83;;
51810;SDS011;52468;40.116;18.296;2023-03-02T00:46:20;11.23;;;4.20;;
51810;SDS011;52468;40.116;18.296;2023-03-02T00:48:50;17.33;;;4.27;;
51810;SDS011;52468;40.116;18.296;2023-03-02T00:51:19;13.07;;;4.27;;
51810;SDS011;52468;40.116;18.296;2023-03-02T00:53:47;14.70;;;4.37;;
51810;SDS011;52468;40.116;18.296;2023-03-02T00:56:14;8.63;;;3.53;;
51810;SDS011;52468;40.116;18.296;2023-03-02T00:58:47;18.48;;;4.43;;
51810;SDS011;52468;40.116;18.296;2023-03-02T01:01:15;11.40;;;4.27;;
51810;SDS011;52468;40.116;18.296;2023-03-02T01:03:47;8.25;;;3.97;;
51810;SDS011;52468;40.116;18.296;2023-03-02T01:06:18;11.17;;;3.97;;
51810;SDS011;52468;40.116;18.296;2023-03-02T01:08:47;10.10;;;3.53;;
51810;SDS011;52468;40.116;18.296;2023-03-02T01:11:17;9.00;;;3.80;;
51810;SDS011;52468;40.116;18.296;2023-03-02T01:13:47;19.43;;;4.87;;
51810;SDS011;52468;40.116;18.296;2023-03-02T01:16:16;11.80;;;4.63;;
51810;SDS011;52468;40.116;18.296;2023-03-02T01:18:44;16.17;;;3.70;;
51810;SDS011;52468;40.116;18.296;2023-03-02T01:21:12;18.77;;;5.10;;
51810;SDS011;52468;40.116;18.296;2023-03-02T01:23:41;12.93;;;4.73;;
51810;SDS011;52468;40.116;18.296;2023-03-02T01:26:09;15.97;;;3.67;;
51810;SDS011;52468;40.116;18.296;2023-03-02T01:28:37;10.33;;;3.60;;
51810;SDS011;52468;40.116;18.296;2023-03-02T01:31:05;13.53;;;5.13;;
51810;SDS011;52468;40.116;18.296;2023-03-02T01:33:33;12.57;;;4.20;;
51810;SDS011;52468;40.116;18.296;2023-03-02T01:36:01;16.60;;;4.33;;
51810;SDS011;52468;40.116;18.296;2023-03-02T01:38:29;11.97;;;4.37;;
51810;SDS011;52468;40.116;18.296;2023-03-02T01:40:57;22.70;;;5.43;;
51810;SDS011;52468;40.116;18.296;2023-03-02T01:43:25;15.23;;;5.63;;
51810;SDS011;52468;40.116;18.296;2023-03-02T01:45:56;15.10;;;5.70;;
51810;SDS011;52468;40.116;18.296;2023-03-02T01:48:43;11.57;;;4.67;;
51810;SDS011;52468;40.116;18.296;2023-03-02T01:51:33;13.03;;;4.03;;
51810;SDS011;52468;40.116;18.296;2023-03-02T01:54:07;16.37;;;5.20;;
51810;SDS011;52468;40.116;18.296;2023-03-02T01:56:54;18.63;;;4.17;;
51810;SDS011;52468;40.116;18.296;2023-03-02T01:59:25;18.45;;;5.40;;
51810;SDS011;52468;40.116;18.296;2023-03-02T02:01:58;16.50;;;4.60;;
51810;SDS011;52468;40.116;18.296;2023-03-02T02:04:29;16.77;;;5.23;;
51810;SDS011;52468;40.116;18.296;2023-03-02T02:07:02;11.50;;;4.00;;
51810;SDS011;52468;40.116;18.296;2023-03-02T02:09:39;14.70;;;4.33;;
51810;SDS011;52468;40.116;18.296;2023-03-02T02:12:11;15.30;;;4.53;;
51810;SDS011;52468;40.116;18.296;2023-03-02T02:14:41;14.33;;;5.07;;
51810;SDS011;52468;40.116;18.296;2023-03-02T02:17:10;22.87;;;8.03;;
51810;SDS011;52468;40.116;18.296;2023-03-02T02:22:52;23.40;;;8.13;;
51810;SDS011;52468;40.116;18.296;2023-03-02T02:28:02;13.10;;;5.07;;
51810;SDS011;52468;40.116;18.296;2023-03-02T02:33:03;14.20;;;3.83;;
51810;SDS011;52468;40.116;18.296;2023-03-02T02:35:32;16.23;;;5.00;;
51810;SDS011;52468;40.116;18.296;2023-03-02T02:38:05;12.70;;;4.23;;
51810;SDS011;52468;40.116;18.296;2023-03-02T02:40:43;14.23;;;4.67;;
51810;SDS011;52468;40.116;18.296;2023-03-02T02:43:18;11.27;;;4.63;;
51810;SDS011;52468;40.116;18.296;2023-03-02T02:45:48;17.20;;;5.90;;
51810;SDS011;52468;40.116;18.296;2023-03-02T02:48:19;14.70;;;5.07;;
51810;SDS011;52468;40.116;18.296;2023-03-02T02:50:53;15.00;;;5.20;;
51810;SDS011;52468;40.116;18.296;2023-03-02T02:53:32;14.67;;;4.93;;
51810;SDS011;52468;40.116;18.296;2023-03-02T02:56:09;17.20;;;5.73;;
51810;SDS011;52468;40.116;18.296;2023-03-02T02:58:44;17.10;;;4.57;;
51810;SDS011;52468;40.116;18.296;2023-03-02T03:01:19;18.10;;;6.37;;
51810;SDS011;52468;40.116;18.296;2023-03-02T03:03:59;20.27;;;6.10;;
51810;SDS011;52468;40.116;18.296;2023-03-02T03:06:30;8.53;;;5.00;;
51810;SDS011;52468;40.116;18.296;2023-03-02T03:09:05;13.33;;;4.90;;
51810;SDS011;52468;40.116;18.296;2023-03-02T03:11:47;14.40;;;4.80;;
51810;SDS011;52468;40.116;18.296;2023-03-02T03:14:24;23.07;;;6.10;;
51810;SDS011;52468;40.116;18.296;2023-03-02T03:16:56;27.57;;;6.23;;
51810;SDS011;52468;40.116;18.296;2023-03-02T03:19:28;7.17;;;3.63;;
51810;SDS011;52468;40.116;18.296;2023-03-02T03:22:00;13.73;;;4.77;;
51810;SDS011;52468;40.116;18.296;2023-03-02T03:24:33;11.33;;;4.50;;
51810;SDS011;52468;40.116;18.296;2023-03-02T03:27:03;14.03;;;5.97;;
51810;SDS011;52468;40.116;18.296;2023-03-02T03:29:36;11.80;;;4.33;;
51810;SDS011;52468;40.116;18.296;2023-03-02T03:32:08;10.43;;;5.00;;
51810;SDS011;52468;40.116;18.296;2023-03-02T03:34:36;14.13;;;5.43;;
51810;SDS011;52468;40.116;18.296;2023-03-02T03:37:15;10.73;;;4.87;;
51810;SDS011;52468;40.116;18.296;2023-03-02T03:39:45;9.53;;;5.27;;
51810;SDS011;52468;40.116;18.296;2023-03-02T03:42:14;16.90;;;6.33;;
51810;SDS011;52468;40.116;18.296;2023-03-02T03:44:43;15.10;;;4.97;;
51810;SDS011;52468;40.116;18.296;2023-03-02T03:47:11;11.07;;;4.70;;
51810;SDS011;52468;40.116;18.296;2023-03-02T03:49:39;15.50;;;6.30;;
51810;SDS011;52468;40.116;18.296;2023-03-02T03:52:08;14.27;;;5.43;;
51810;SDS011;52468;40.116;18.296;2023-03-02T03:54:36;10.70;;;4.47;;
51810;SDS011;52468;40.116;18.296;2023-03-02T03:57:04;11.77;;;4.97;;
51810;SDS011;52468;40.116;18.296;2023-03-02T03:59:32;19.03;;;5.97;;
51810;SDS011;52468;40.116;18.296;2023-03-02T04:02:02;14.23;;;5.57;;
51810;SDS011;52468;40.116;18.296;2023-03-02T04:04:36;11.90;;;4.50;;
51810;SDS011;52468;40.116;18.296;2023-03-02T04:07:08;12.40;;;4.70;;
51810;SDS011;52468;40.116;18.296;2023-03-02T04:09:36;29.23;;;5.30;;
51810;SDS011;52468;40.116;18.296;2023-03-02T04:12:07;24.10;;;7.10;;
51810;SDS011;52468;40.116;18.296;2023-03-02T04:14:37;14.23;;;5.23;;
51810;SDS011;52468;40.116;18.296;2023-03-02T04:17:06;9.93;;;4.70;;
51810;SDS011;52468;40.116;18.296;2023-03-02T04:19:37;15.63;;;5.33;;
51810;SDS011;52468;40.116;18.296;2023-03-02T04:22:05;14.40;;;5.33;;
51810;SDS011;52468;40.116;18.296;2023-03-02T04:24:33;13.93;;;6.87;;
51810;SDS011;52468;40.116;18.296;2023-03-02T04:27:03;12.60;;;4.90;;
51810;SDS011;52468;40.116;18.296;2023-03-02T04:29:33;18.40;;;5.43;;
51810;SDS011;52468;40.116;18.296;2023-03-02T04:32:02;18.77;;;6.60;;
51810;SDS011;52468;40.116;18.296;2023-03-02T04:34:32;12.87;;;5.37;;
51810;SDS011;52468;40.116;18.296;2023-03-02T04:37:00;13.03;;;5.53;;
51810;SDS011;52468;40.116;18.296;2023-03-02T04:39:29;16.77;;;5.40;;
51810;SDS011;52468;40.116;18.296;2023-03-02T04:42:00;13.30;;;5.93;;
51810;SDS011;52468;40.116;18.296;2023-03-02T04:44:27;14.80;;;5.90;;
51810;SDS011;52468;40.116;18.296;2023-03-02T04:46:55;22.40;;;6.30;;
51810;SDS011;52468;40.116;18.296;2023-03-02T04:49:23;10.90;;;5.23;;
51810;SDS011;52468;40.116;18.296;2023-03-02T04:51:52;15.70;;;6.53;;
51810;SDS011;52468;40.116;18.296;2023-03-02T04:54:21;14.77;;;4.87;;
51810;SDS011;52468;40.116;18.296;2023-03-02T04:56:51;11.87;;;5.50;;
51810;SDS011;52468;40.116;18.296;2023-03-02T04:59:21;19.30;;;6.50;;
51810;SDS011;52468;40.116;18.296;2023-03-02T05:01:55;8.90;;;5.47;;
51810;SDS011;52468;40.116;18.296;2023-03-02T05:04:25;12.10;;;5.40;;
51810;SDS011;52468;40.116;18.296;2023-03-02T05:06:54;17.60;;;5.90;;
51810;SDS011;52468;40.116;18.296;2023-03-02T05:09:23;13.33;;;6.30;;
51810;SDS011;52468;40.116;18.296;2023-03-02T05:11:58;14.70;;;7.63;;
51810;SDS011;52468;40.116;18.296;2023-03-02T05:14:27;17.93;;;5.57;;
51810;SDS011;52468;40.116;18.296;2023-03-02T05:16:56;21.37;;;6.40;;
51810;SDS011;52468;40.116;18.296;2023-03-02T05:19:24;23.97;;;9.47;;
51810;SDS011;52468;40.116;18.296;2023-03-02T05:21:51;23.77;;;7.50;;
51810;SDS011;52468;40.116;18.296;2023-03-02T05:24:19;22.27;;;6.93;;
51810;SDS011;52468;40.116;18.296;2023-03-02T05:26:47;28.33;;;8.37;;
51810;SDS011;52468;40.116;18.296;2023-03-02T05:29:15;24.93;;;8.90;;
51810;SDS011;52468;40.116;18.296;2023-03-02T05:31:43;17.67;;;8.70;;
51810;SDS011;52468;40.116;18.296;2023-03-02T05:34:13;18.20;;;6.03;;
51810;SDS011;52468;40.116;18.296;2023-03-02T05:36:42;20.77;;;7.97;;
51810;SDS011;52468;40.116;18.296;2023-03-02T05:39:11;16.10;;;7.47;;
51810;SDS011;52468;40.116;18.296;2023-03-02T05:41:39;12.47;;;8.10;;
51810;SDS011;52468;40.116;18.296;2023-03-02T05:44:08;26.70;;;8.03;;
51810;SDS011;52468;40.116;18.296;2023-03-02T05:46:38;24.80;;;7.63;;
51810;SDS011;52468;40.116;18.296;2023-03-02T05:49:06;20.53;;;8.50;;
51810;SDS011;52468;40.116;18.296;2023-03-02T05:51:34;15.33;;;8.17;;
51810;SDS011;52468;40.116;18.296;2023-03-02T05:54:02;23.90;;;10.73;;
51810;SDS011;52468;40.116;18.296;2023-03-02T05:56:30;17.63;;;8.30;;
51810;SDS011;52468;40.116;18.296;2023-03-02T05:58:58;17.67;;;9.87;;
51810;SDS011;52468;40.116;18.296;2023-03-02T06:01:26;14.20;;;7.33;;
51810;SDS011;52468;40.116;18.296;2023-03-02T06:03:54;22.83;;;10.13;;
51810;SDS011;52468;40.116;18.296;2023-03-02T06:06:22;23.53;;;9.33;;
51810;SDS011;52468;40.116;18.296;2023-03-02T06:08:49;27.70;;;11.77;;
51810;SDS011;52468;40.116;18.296;2023-03-02T06:11:17;34.03;;;12.53;;
51810;SDS011;52468;40.116;18.296;2023-03-02T06:13:45;16.37;;;9.80;;
51810;SDS011;52468;40.116;18.296;2023-03-02T06:16:13;20.47;;;9.77;;
51810;SDS011;52468;40.116;18.296;2023-03-02T06:18:41;22.50;;;8.47;;
51810;SDS011;52468;40.116;18.296;2023-03-02T06:21:09;20.63;;;10.43;;
51810;SDS011;52468;40.116;18.296;2023-03-02T06:23:36;20.70;;;9.43;;
51810;SDS011;52468;40.116;18.296;2023-03-02T06:26:08;16.53;;;9.03;;
51810;SDS011;52468;40.116;18.296;2023-03-02T06:28:37;16.00;;;7.53;;
51810;SDS011;52468;40.116;18.296;2023-03-02T06:31:17;17.37;;;7.73;;
51810;SDS011;52468;40.116;18.296;2023-03-02T06:33:45;10.47;;;6.03;;
51810;SDS011;52468;40.116;18.296;2023-03-02T06:36:13;17.57;;;6.57;;
51810;SDS011;52468;40.116;18.296;2023-03-02T06:38:43;12.13;;;5.13;;
51810;SDS011;52468;40.116;18.296;2023-03-02T06:41:10;10.90;;;5.37;;
51810;SDS011;52468;40.116;18.296;2023-03-02T06:43:38;11.37;;;4.10;;
51810;SDS011;52468;40.116;18.296;2023-03-02T06:46:06;14.33;;;5.30;;
51810;SDS011;52468;40.116;18.296;2023-03-02T06:48:34;16.80;;;4.53;;
51810;SDS011;52468;40.116;18.296;2023-03-02T06:51:02;9.57;;;4.47;;
51810;SDS011;52468;40.116;18.296;2023-03-02T06:53:30;5.77;;;3.47;;
51810;SDS011;52468;40.116;18.296;2023-03-02T06:55:58;10.47;;;3.40;;
51810;SDS011;52468;40.116;18.296;2023-03-02T06:58:26;9.57;;;4.30;;
51810;SDS011;52468;40.116;18.296;2023-03-02T07:00:54;17.13;;;4.97;;
51810;SDS011;52468;40.116;18.296;2023-03-02T07:03:21;11.97;;;4.10;;
51810;SDS011;52468;40.116;18.296;2023-03-02T07:05:49;5.67;;;2.50;;
51810;SDS011;52468;40.116;18.296;2023-03-02T07:08:18;5.03;;;1.90;;
51810;SDS011;52468;40.116;18.296;2023-03-02T07:10:46;9.43;;;1.80;;
51810;SDS011;52468;40.116;18.296;2023-03-02T07:13:13;2.57;;;1.70;;
51810;SDS011;52468;40.116;18.296;2023-03-02T07:15:41;8.97;;;2.20;;
51810;SDS011;52468;40.116;18.296;2023-03-02T07:18:09;7.60;;;2.27;;
51810;SDS011;52468;40.116;18.296;2023-03-02T07:20:37;5.03;;;2.70;;
51810;SDS011;52468;40.116;18.296;2023-03-02T07:23:05;7.10;;;3.23;;
51810;SDS011;52468;40.116;18.296;2023-03-02T07:25:33;10.33;;;2.87;;
51810;SDS011;52468;40.116;18.296;2023-03-02T07:28:03;6.63;;;1.73;;
51810;SDS011;52468;40.116;18.296;2023-03-02T07:30:31;3.87;;;1.90;;
51810;SDS011;52468;40.116;18.296;2023-03-02T07:32:58;5.57;;;2.47;;
51810;SDS011;52468;40.116;18.296;2023-03-02T07:35:26;7.33;;;2.20;;
51810;SDS011;52468;40.116;18.296;2023-03-02T07:37:54;10.53;;;2.83;;
51810;SDS011;52468;40.116;18.296;2023-03-02T07:40:22;6.93;;;2.83;;
51810;SDS011;52468;40.116;18.296;2023-03-02T07:42:50;6.97;;;1.97;;
51810;SDS011;52468;40.116;18.296;2023-03-02T07:45:18;8.13;;;1.73;;
51810;SDS011;52468;40.116;18.296;2023-03-02T07:47:47;6.33;;;2.23;;
51810;SDS011;52468;40.116;18.296;2023-03-02T07:50:15;6.17;;;2.53;;
51810;SDS011;52468;40.116;18.296;2023-03-02T07:52:43;7.40;;;2.13;;
51810;SDS011;52468;40.116;18.296;2023-03-02T07:55:11;9.73;;;2.50;;
51810;SDS011;52468;40.116;18.296;2023-03-02T07:57:39;3.17;;;1.73;;
51810;SDS011;52468;40.116;18.296;2023-03-02T08:00:07;5.90;;;2.50;;
51810;SDS011;52468;40.116;18.296;2023-03-02T08:02:39;5.77;;;1.67;;
51810;SDS011;52468;40.116;18.296;2023-03-02T08:05:09;6.10;;;1.87;;
51810;SDS011;52468;40.116;18.296;2023-03-02T08:07:37;4.83;;;1.87;;
51810;SDS011;52468;40.116;18.296;2023-03-02T08:10:07;5.67;;;2.47;;
51810;SDS011;52468;40.116;18.296;2023-03-02T08:12:35;9.17;;;2.40;;
51810;SDS011;52468;40.116;18.296;2023-03-02T08:15:03;10.77;;;2.73;;
51810;SDS011;52468;40.116;18.296;2023-03-02T08:17:32;9.77;;;2.50;;
51810;SDS011;52468;40.116;18.296;2023-03-02T08:20:00;8.53;;;1.50;;
51810;SDS011;52468;40.116;18.296;2023-03-02T08:22:27;6.80;;;1.90;;
51810;SDS011;52468;40.116;18.296;2023-03-02T08:24:55;7.03;;;2.37;;
51810;SDS011;52468;40.116;18.296;2023-03-02T08:27:23;3.37;;;1.83;;
51810;SDS011;52468;40.116;18.296;2023-03-02T08:29:51;6.87;;;1.90;;
51810;SDS011;52468;40.116;18.296;2023-03-02T08:32:20;8.63;;;1.90;;
51810;SDS011;52468;40.116;18.296;2023-03-02T08:34:48;4.63;;;1.77;;
51810;SDS011;52468;40.116;18.296;2023-03-02T08:37:18;6.67;;;1.67;;
51810;SDS011;52468;40.116;18.296;2023-03-02T08:39:46;6.63;;;2.03;;
51810;SDS011;52468;40.116;18.296;2023-03-02T08:42:14;8.40;;;2.73;;
51810;SDS011;52468;40.116;18.296;2023-03-02T08:44:43;6.07;;;1.43;;
51810;SDS011;52468;40.116;18.296;2023-03-02T08:47:11;6.30;;;1.50;;
51810;SDS011;52468;40.116;18.296;2023-03-02T08:49:38;4.90;;;1.10;;
51810;SDS011;52468;40.116;18.296;2023-03-02T08:52:07;9.57;;;1.87;;
51810;SDS011;52468;40.116;18.296;2023-03-02T08:54:34;6.27;;;1.93;;
51810;SDS011;52468;40.116;18.296;2023-03-02T08:57:03;5.33;;;1.23;;
51810;SDS011;52468;40.116;18.296;2023-03-02T08:59:31;2.90;;;1.53;;
51810;SDS011;52468;40.116;18.296;2023-03-02T09:01:59;2.70;;;1.50;;
51810;SDS011;52468;40.116;18.296;2023-03-02T09:04:27;6.90;;;1.50;;
51810;SDS011;52468;40.116;18.296;2023-03-02T09:06:54;4.43;;;1.10;;
51810;SDS011;52468;40.116;18.296;2023-03-02T09:09:22;4.57;;;1.50;;
51810;SDS011;52468;40.116;18.296;2023-03-02T09:11:50;6.80;;;2.27;;
51810;SDS011;52468;40.116;18.296;2023-03-02T09:14:18;8.10;;;2.33;;
51810;SDS011;52468;40.116;18.296;2023-03-02T09:16:46;5.97;;;1.10;;
51810;SDS011;52468;40.116;18.296;2023-03-02T09:19:14;4.67;;;1.60;;
51810;SDS011;52468;40.116;18.296;2023-03-02T09:21:42;4.23;;;0.90;;
51810;SDS011;52468;40.116;18.296;2023-03-02T09:24:09;4.43;;;1.40;;
51810;SDS011;52468;40.116;18.296;2023-03-02T09:26:37;3.73;;;1.10;;
51810;SDS011;52468;40.116;18.296;2023-03-02T09:29:05;4.17;;;1.70;;
51810;SDS011;52468;40.116;18.296;2023-03-02T09:31:33;4.90;;;1.10;;
51810;SDS011;52468;40.116;18.296;2023-03-02T09:34:02;2.60;;;0.93;;
51810;SDS011;52468;40.116;18.296;2023-03-02T09:36:31;4.33;;;1.20;;
51810;SDS011;52468;40.116;18.296;2023-03-02T09:39:00;4.83;;;1.10;;
51810;SDS011;52468;40.116;18.296;2023-03-02T09:41:47;3.83;;;1.27;;
51810;SDS011;52468;40.116;18.296;2023-03-02T09:50:27;3.60;;;1.38;;
51810;SDS011;52468;40.116;18.296;2023-03-02T09:55:37;4.87;;;1.00;;
51810;SDS011;52468;40.116;18.296;2023-03-02T09:58:07;5.43;;;1.87;;
51810;SDS011;52468;40.116;18.296;2023-03-02T10:00:42;5.87;;;1.10;;
51810;SDS011;52468;40.116;18.296;2023-03-02T10:03:18;3.60;;;1.93;;
51810;SDS011;52468;40.116;18.296;2023-03-02T10:05:52;3.77;;;0.80;;
51810;SDS011;52468;40.116;18.296;2023-03-02T10:08:24;5.23;;;1.70;;
51810;SDS011;52468;40.116;18.296;2023-03-02T10:13:54;3.07;;;1.10;;
51810;SDS011;52468;40.116;18.296;2023-03-02T10:16:31;2.90;;;1.50;;
51810;SDS011;52468;40.116;18.296;2023-03-02T10:21:52;6.63;;;1.53;;
51810;SDS011;52468;40.116;18.296;2023-03-02T10:32:30;4.87;;;1.47;;
51810;SDS011;52468;40.116;18.296;2023-03-02T10:35:09;7.57;;;2.20;;
51810;SDS011;52468;40.116;18.296;2023-03-02T10:37:42;4.00;;;1.33;;
51810;SDS011;52468;40.116;18.296;2023-03-02T10:40:14;4.93;;;0.93;;
51810;SDS011;52468;40.116;18.296;2023-03-02T10:42:53;5.10;;;1.67;;
51810;SDS011;52468;40.116;18.296;2023-03-02T10:45:24;2.97;;;1.40;;
51810;SDS011;52468;40.116;18.296;2023-03-02T10:48:13;6.35;;;1.60;;
51810;SDS011;52468;40.116;18.296;2023-03-02T10:50:41;7.30;;;1.33;;
51810;SDS011;52468;40.116;18.296;2023-03-02T10:53:16;5.27;;;0.93;;
51810;SDS011;52468;40.116;18.296;2023-03-02T10:55:46;2.33;;;1.03;;
51810;SDS011;52468;40.116;18.296;2023-03-02T10:58:19;6.50;;;1.87;;
51810;SDS011;52468;40.116;18.296;2023-03-02T11:01:05;5.00;;;1.17;;
51810;SDS011;52468;40.116;18.296;2023-03-02T11:03:41;6.47;;;1.40;;
51810;SDS011;52468;40.116;18.296;2023-03-02T11:06:20;5.53;;;1.13;;
51810;SDS011;52468;40.116;18.296;2023-03-02T11:09:01;4.80;;;1.03;;
51810;SDS011;52468;40.116;18.296;2023-03-02T11:11:33;4.80;;;1.00;;
51810;SDS011;52468;40.116;18.296;2023-03-02T11:14:09;6.20;;;1.10;;
51810;SDS011;52468;40.116;18.296;2023-03-02T11:16:43;4.87;;;1.50;;
51810;SDS011;52468;40.116;18.296;2023-03-02T11:19:24;2.77;;;1.23;;
51810;SDS011;52468;40.116;18.296;2023-03-02T11:24:47;5.57;;;1.27;;
51810;SDS011;52468;40.116;18.296;2023-03-02T11:27:28;5.53;;;1.67;;
51810;SDS011;52468;40.116;18.296;2023-03-02T11:30:12;9.80;;;1.87;;
51810;SDS011;52468;40.116;18.296;2023-03-02T11:32:53;3.47;;;1.63;;
51810;SDS011;52468;40.116;18.296;2023-03-02T11:35:30;3.83;;;1.57;;
51810;SDS011;52468;40.116;18.296;2023-03-02T11:38:18;2.97;;;1.23;;
51810;SDS011;52468;40.116;18.296;2023-03-02T11:43:29;9.47;;;1.00;;
51810;SDS011;52468;40.116;18.296;2023-03-02T11:46:04;3.83;;;1.10;;
51810;SDS011;52468;40.116;18.296;2023-03-02T11:48:43;8.63;;;1.05;;
51810;SDS011;52468;40.116;18.296;2023-03-02T11:51:17;3.67;;;1.30;;
51810;SDS011;52468;40.116;18.296;2023-03-02T11:54:01;1.50;;;0.82;;
51810;SDS011;52468;40.116;18.296;2023-03-02T11:56:35;3.50;;;0.80;;
51810;SDS011;52468;40.116;18.296;2023-03-02T11:59:09;3.63;;;1.00;;
51810;SDS011;52468;40.116;18.296;2023-03-02T12:01:41;4.63;;;1.40;;
51810;SDS011;52468;40.116;18.296;2023-03-02T12:04:28;4.07;;;1.10;;
51810;SDS011;52468;40.116;18.296;2023-03-02T12:06:56;7.30;;;2.13;;
51810;SDS011;52468;40.116;18.296;2023-03-02T12:09:27;8.50;;;2.40;;
51810;SDS011;52468;40.116;18.296;2023-03-02T12:12:14;8.90;;;2.23;;
51810;SDS011;52468;40.116;18.296;2023-03-02T12:14:49;8.20;;;2.20;;
51810;SDS011;52468;40.116;18.296;2023-03-02T12:22:34;4.83;;;1.00;;
51810;SDS011;52468;40.116;18.296;2023-03-02T12:25:05;3.73;;;1.80;;
51810;SDS011;52468;40.116;18.296;2023-03-02T12:27:54;2.67;;;1.00;;
51810;SDS011;52468;40.116;18.296;2023-03-02T12:30:26;4.37;;;1.10;;
51810;SDS011;52468;40.116;18.296;2023-03-02T12:35:37;4.07;;;1.38;;
51810;SDS011;52468;40.116;18.296;2023-03-02T12:38:21;6.60;;;1.90;;
51810;SDS011;52468;40.116;18.296;2023-03-02T12:43:34;3.65;;;1.10;;
51810;SDS011;52468;40.116;18.296;2023-03-02T12:51:29;6.93;;;1.27;;
51810;SDS011;52468;40.116;18.296;2023-03-02T12:54:17;2.80;;;1.80;;
51810;SDS011;52468;40.116;18.296;2023-03-02T12:56:47;6.23;;;1.13;;
51810;SDS011;52468;40.116;18.296;2023-03-02T12:59:19;3.20;;;1.03;;
51810;SDS011;52468;40.116;18.296;2023-03-02T13:01:50;5.70;;;1.40;;
51810;SDS011;52468;40.116;18.296;2023-03-02T13:04:29;5.53;;;1.20;;
51810;SDS011;52468;40.116;18.296;2023-03-02T13:06:57;7.60;;;1.70;;
51810;SDS011;52468;40.116;18.296;2023-03-02T13:09:25;2.33;;;1.00;;
51810;SDS011;52468;40.116;18.296;2023-03-02T13:11:53;1.97;;;1.10;;
51810;SDS011;52468;40.116;18.296;2023-03-02T13:14:24;5.40;;;1.10;;
51810;SDS011;52468;40.116;18.296;2023-03-02T13:16:55;4.40;;;0.97;;
51810;SDS011;52468;40.116;18.296;2023-03-02T13:19:29;4.03;;;1.20;;
51810;SDS011;52468;40.116;18.296;2023-03-02T13:21:58;3.20;;;0.70;;
51810;SDS011;52468;40.116;18.296;2023-03-02T13:27:03;2.70;;;0.90;;
51810;SDS011;52468;40.116;18.296;2023-03-02T13:29:41;3.97;;;1.03;;
51810;SDS011;52468;40.116;18.296;2023-03-02T13:32:16;1.83;;;1.07;;
51810;SDS011;52468;40.116;18.296;2023-03-02T13:34:48;4.00;;;1.40;;
51810;SDS011;52468;40.116;18.296;2023-03-02T13:39:57;3.20;;;1.23;;
51810;SDS011;52468;40.116;18.296;2023-03-02T13:42:35;2.77;;;1.10;;
51810;SDS011;52468;40.116;18.296;2023-03-02T13:45:24;4.33;;;0.90;;
51810;SDS011;52468;40.116;18.296;2023-03-02T13:47:57;1.50;;;1.10;;
51810;SDS011;52468;40.116;18.296;2023-03-02T13:50:27;3.87;;;1.03;;
51810;SDS011;52468;40.116;18.296;2023-03-02T13:53:00;3.97;;;1.43;;
51810;SDS011;52468;40.116;18.296;2023-03-02T13:55:31;1.87;;;1.37;;
51810;SDS011;52468;40.116;18.296;2023-03-02T13:58:00;4.43;;;1.00;;
51810;SDS011;52468;40.116;18.296;2023-03-02T14:00:32;2.93;;;0.90;;
51810;SDS011;52468;40.116;18.296;2023-03-02T14:03:01;2.45;;;0.85;;
51810;SDS011;52468;40.116;18.296;2023-03-02T14:05:29;2.37;;;0.90;;
51810;SDS011;52468;40.116;18.296;2023-03-02T14:07:59;2.00;;;0.87;;
51810;SDS011;52468;40.116;18.296;2023-03-02T14:10:29;2.93;;;1.03;;
51810;SDS011;52468;40.116;18.296;2023-03-02T14:13:06;4.80;;;1.10;;
51810;SDS011;52468;40.116;18.296;2023-03-02T14:15:42;11.30;;;5.47;;
51810;SDS011;52468;40.116;18.296;2023-03-02T14:18:59;4.87;;;1.33;;
51810;SDS011;52468;40.116;18.296;2023-03-02T14:21:19;2.37;;;1.77;;
51810;SDS011;52468;40.116;18.296;2023-03-02T14:23:48;6.53;;;1.50;;
51810;SDS011;52468;40.116;18.296;2023-03-02T14:31:57;3.60;;;0.90;;
51810;SDS011;52468;40.116;18.296;2023-03-02T14:36:55;2.83;;;0.90;;
51810;SDS011;52468;40.116;18.296;2023-03-02T14:42:26;1.50;;;1.10;;
51810;SDS011;52468;40.116;18.296;2023-03-02T14:44:54;6.20;;;1.70;;
51810;SDS011;52468;40.116;18.296;2023-03-02T14:47:21;3.47;;;2.77;;
51810;SDS011;52468;40.116;18.296;2023-03-02T14:49:50;4.13;;;1.37;;
51810;SDS011;52468;40.116;18.296;2023-03-02T14:54:58;5.87;;;1.20;;
51810;SDS011;52468;40.116;18.296;2023-03-02T14:57:32;5.83;;;2.23;;
51810;SDS011;52468;40.116;18.296;2023-03-02T15:00:04;4.30;;;2.10;;
51810;SDS011;52468;40.116;18.296;2023-03-02T15:02:33;4.10;;;2.17;;
51810;SDS011;52468;40.116;18.296;2023-03-02T15:05:01;4.47;;;1.17;;
51810;SDS011;52468;40.116;18.296;2023-03-02T15:07:29;4.00;;;1.30;;
51810;SDS011;52468;40.116;18.296;2023-03-02T15:09:57;3.67;;;1.50;;
51810;SDS011;52468;40.116;18.296;2023-03-02T15:12:25;4.90;;;2.50;;
51810;SDS011;52468;40.116;18.296;2023-03-02T15:14:53;5.90;;;1.77;;
51810;SDS011;52468;40.116;18.296;2023-03-02T15:17:21;5.57;;;1.53;;
51810;SDS011;52468;40.116;18.296;2023-03-02T15:19:49;5.40;;;1.53;;
51810;SDS011;52468;40.116;18.296;2023-03-02T15:22:17;4.63;;;1.57;;
51810;SDS011;52468;40.116;18.296;2023-03-02T15:24:45;5.27;;;1.20;;
51810;SDS011;52468;40.116;18.296;2023-03-02T15:27:12;3.73;;;1.47;;
51810;SDS011;52468;40.116;18.296;2023-03-02T15:29:44;4.90;;;3.30;;
51810;SDS011;52468;40.116;18.296;2023-03-02T15:32:13;4.80;;;3.40;;
51810;SDS011;52468;40.116;18.296;2023-03-02T15:34:41;5.63;;;4.10;;
51810;SDS011;52468;40.116;18.296;2023-03-02T15:37:10;6.10;;;2.97;;
51810;SDS011;52468;40.116;18.296;2023-03-02T15:39:38;6.20;;;1.93;;
51810;SDS011;52468;40.116;18.296;2023-03-02T15:42:06;6.87;;;2.00;;
51810;SDS011;52468;40.116;18.296;2023-03-02T15:44:34;8.20;;;2.53;;
51810;SDS011;52468;40.116;18.296;2023-03-02T15:47:02;5.53;;;2.70;;
51810;SDS011;52468;40.116;18.296;2023-03-02T15:49:30;10.63;;;2.40;;
51810;SDS011;52468;40.116;18.296;2023-03-02T15:51:58;2.60;;;2.23;;
51810;SDS011;52468;40.116;18.296;2023-03-02T15:54:27;3.70;;;2.07;;
51810;SDS011;52468;40.116;18.296;2023-03-02T15:56:57;6.30;;;3.03;;
51810;SDS011;52468;40.116;18.296;2023-03-02T15:59:28;5.77;;;3.40;;
51810;SDS011;52468;40.116;18.296;2023-03-02T16:01:57;10.83;;;5.37;;
51810;SDS011;52468;40.116;18.296;2023-03-02T16:04:26;8.30;;;5.10;;